Hauptseite
METAR-TAF:

METAR-TAF

Flughäfen :

Fairbanks, Alaska, Vereinigte Staaten

Fairbanks International Airport

Breite: 64-48-14N, Länge: 147-52-34W, Höhe: 132 m

Beobachtung

Neuester Wetterbericht von vor 22 Minuten, um 13:53 UTC
Windstille
Temperatur -14°C
Luftfeuchtigkeit 92%
Luftdruck 995 hPa
Sichtweite: 16.1 km
Aufgelockert bewölkt in der Höhe von 6500 ft

METAR: PAFA 201353Z 00000KT 10SM SCT065 M14/M15 A2937 RMK AO2 SLP958 T11441150

Zeit: 06:15 (14:15 UTC)

Prognose

Neuester Wetterbericht von vor 2 Stunden und 55 Minuten, um 11:20 UTC
Gültige Prognose vom 20 um 12 UTC bis 21 um 18 UTC
Wind 5 kt aus Nord
Sichtweite: 10 km
Leicht bewölkt in der Höhe von 6000 ft
Aufgelockert bewölkt in der Höhe von 8000 ft
Ab 20 um 2200 UTC
Wind 4 kt aus Nordost
Sichtweite: 10 km
Aufgelockert bewölkt in der Höhe von 8000 ft

TAF: PAFA 201120Z 2012/2118 36005KT P6SM FEW060 SCT080 FM202200 04004KT P6SM SCT080

Wetterbeobachtungen und Prognosen von mehr als 4000 Flughäfen (METAR und TAF Bericht).

Die verfügbaren Stationen werden durch gelbe und rote Markierungen auf der Karte dargestellt.

Führen Sie die Maus auf sie, um den Namen der Station zu sehen.

Darauf klicken, um die Beobachtung von Wetterbeobachtungen und Prognosen zu sehen.

Um die Karte zu ändern : klicken Sie auf den grünen Tasten mit einem schwarzen Kreuz Zum Vergrößern, auf den grünen Button mit einem Gedankenstrich zu verkleinern, oder auf die grünen Pfeile für benachbarte Karten.


METAR-TAF: